sensor_id;sensor_type;location;lat;lon;timestamp;P1;durP1;ratioP1;P2;durP2;ratioP2
72584;SDS011;60618;40.084;32.908;2023-03-01T00:00:03;11.50;;;3.25;;
72584;SDS011;60618;40.084;32.908;2023-03-01T00:02:31;14.45;;;3.25;;
72584;SDS011;60618;40.084;32.908;2023-03-01T00:04:58;10.90;;;3.17;;
72584;SDS011;60618;40.084;32.908;2023-03-01T00:07:24;13.67;;;3.30;;
72584;SDS011;60618;40.084;32.908;2023-03-01T00:09:51;12.73;;;3.80;;
72584;SDS011;60618;40.084;32.908;2023-03-01T00:12:18;12.35;;;3.40;;
72584;SDS011;60618;40.084;32.908;2023-03-01T00:14:45;15.35;;;3.60;;
72584;SDS011;60618;40.084;32.908;2023-03-01T00:17:12;10.85;;;3.63;;
72584;SDS011;60618;40.084;32.908;2023-03-01T00:19:39;16.27;;;3.50;;
72584;SDS011;60618;40.084;32.908;2023-03-01T00:22:06;12.13;;;3.40;;
72584;SDS011;60618;40.084;32.908;2023-03-01T00:24:33;12.00;;;3.50;;
72584;SDS011;60618;40.084;32.908;2023-03-01T00:26:59;10.90;;;3.42;;
72584;SDS011;60618;40.084;32.908;2023-03-01T00:29:26;10.82;;;3.85;;
72584;SDS011;60618;40.084;32.908;2023-03-01T00:31:53;14.93;;;3.27;;
72584;SDS011;60618;40.084;32.908;2023-03-01T00:34:20;14.00;;;3.28;;
72584;SDS011;60618;40.084;32.908;2023-03-01T00:36:47;12.07;;;3.33;;
72584;SDS011;60618;40.084;32.908;2023-03-01T00:39:14;9.77;;;2.75;;
72584;SDS011;60618;40.084;32.908;2023-03-01T00:41:41;15.50;;;3.63;;
72584;SDS011;60618;40.084;32.908;2023-03-01T00:44:09;9.53;;;3.47;;
72584;SDS011;60618;40.084;32.908;2023-03-01T00:46:37;11.95;;;3.78;;
72584;SDS011;60618;40.084;32.908;2023-03-01T00:49:04;11.43;;;3.35;;
72584;SDS011;60618;40.084;32.908;2023-03-01T00:51:31;11.65;;;3.20;;
72584;SDS011;60618;40.084;32.908;2023-03-01T00:53:59;11.80;;;3.60;;
72584;SDS011;60618;40.084;32.908;2023-03-01T00:56:28;13.73;;;3.17;;
72584;SDS011;60618;40.084;32.908;2023-03-01T00:58:56;12.93;;;3.40;;
72584;SDS011;60618;40.084;32.908;2023-03-01T01:01:24;12.38;;;3.63;;
72584;SDS011;60618;40.084;32.908;2023-03-01T01:03:54;12.07;;;3.15;;
72584;SDS011;60618;40.084;32.908;2023-03-01T01:06:24;13.05;;;3.95;;
72584;SDS011;60618;40.084;32.908;2023-03-01T01:08:56;10.10;;;3.30;;
72584;SDS011;60618;40.084;32.908;2023-03-01T01:11:24;9.93;;;3.40;;
72584;SDS011;60618;40.084;32.908;2023-03-01T01:13:52;13.07;;;3.40;;
72584;SDS011;60618;40.084;32.908;2023-03-01T01:16:21;12.93;;;3.90;;
72584;SDS011;60618;40.084;32.908;2023-03-01T01:18:50;12.40;;;3.30;;
72584;SDS011;60618;40.084;32.908;2023-03-01T01:21:19;11.33;;;3.50;;
72584;SDS011;60618;40.084;32.908;2023-03-01T01:23:48;13.30;;;3.80;;
72584;SDS011;60618;40.084;32.908;2023-03-01T01:26:20;10.32;;;3.40;;
72584;SDS011;60618;40.084;32.908;2023-03-01T01:28:55;11.30;;;3.72;;
72584;SDS011;60618;40.084;32.908;2023-03-01T01:31:23;12.13;;;3.83;;
72584;SDS011;60618;40.084;32.908;2023-03-01T01:33:51;13.93;;;3.70;;
72584;SDS011;60618;40.084;32.908;2023-03-01T01:36:18;11.65;;;3.42;;
72584;SDS011;60618;40.084;32.908;2023-03-01T01:38:46;12.82;;;3.40;;
72584;SDS011;60618;40.084;32.908;2023-03-01T01:41:13;15.07;;;4.32;;
72584;SDS011;60618;40.084;32.908;2023-03-01T01:43:42;16.05;;;3.45;;
72584;SDS011;60618;40.084;32.908;2023-03-01T01:49:44;10.63;;;3.50;;
72584;SDS011;60618;40.084;32.908;2023-03-01T01:51:45;11.65;;;3.65;;
72584;SDS011;60618;40.084;32.908;2023-03-01T01:54:23;11.88;;;3.35;;
72584;SDS011;60618;40.084;32.908;2023-03-01T01:57:01;8.65;;;3.00;;
72584;SDS011;60618;40.084;32.908;2023-03-01T01:59:33;12.67;;;3.37;;
72584;SDS011;60618;40.084;32.908;2023-03-01T02:02:02;9.02;;;2.80;;
72584;SDS011;60618;40.084;32.908;2023-03-01T02:04:31;12.05;;;3.10;;
72584;SDS011;60618;40.084;32.908;2023-03-01T02:07:02;9.93;;;3.30;;
72584;SDS011;60618;40.084;32.908;2023-03-01T02:09:35;11.40;;;3.08;;
72584;SDS011;60618;40.084;32.908;2023-03-01T02:12:02;12.73;;;3.47;;
72584;SDS011;60618;40.084;32.908;2023-03-01T02:14:31;14.80;;;3.50;;
72584;SDS011;60618;40.084;32.908;2023-03-01T02:16:57;12.65;;;3.63;;
72584;SDS011;60618;40.084;32.908;2023-03-01T02:22:28;10.85;;;3.15;;
72584;SDS011;60618;40.084;32.908;2023-03-01T02:30:25;13.50;;;2.90;;
72584;SDS011;60618;40.084;32.908;2023-03-01T02:32:52;12.20;;;3.17;;
72584;SDS011;60618;40.084;32.908;2023-03-01T02:35:22;11.65;;;3.70;;
72584;SDS011;60618;40.084;32.908;2023-03-01T02:37:49;13.37;;;3.43;;
72584;SDS011;60618;40.084;32.908;2023-03-01T02:40:17;14.65;;;3.53;;
72584;SDS011;60618;40.084;32.908;2023-03-01T02:42:47;13.50;;;3.70;;
72584;SDS011;60618;40.084;32.908;2023-03-01T02:45:18;11.48;;;3.20;;
72584;SDS011;60618;40.084;32.908;2023-03-01T02:47:45;10.77;;;3.97;;
72584;SDS011;60618;40.084;32.908;2023-03-01T02:50:21;11.60;;;3.17;;
72584;SDS011;60618;40.084;32.908;2023-03-01T02:53:01;11.90;;;3.35;;
72584;SDS011;60618;40.084;32.908;2023-03-01T02:55:31;12.90;;;3.67;;
72584;SDS011;60618;40.084;32.908;2023-03-01T02:57:58;13.50;;;3.35;;
72584;SDS011;60618;40.084;32.908;2023-03-01T03:00:34;11.95;;;3.40;;
72584;SDS011;60618;40.084;32.908;2023-03-01T03:03:03;12.77;;;3.10;;
72584;SDS011;60618;40.084;32.908;2023-03-01T03:05:31;13.98;;;3.47;;
72584;SDS011;60618;40.084;32.908;2023-03-01T03:07:59;11.57;;;3.55;;
72584;SDS011;60618;40.084;32.908;2023-03-01T03:10:29;13.18;;;3.28;;
72584;SDS011;60618;40.084;32.908;2023-03-01T03:13:06;12.27;;;3.10;;
72584;SDS011;60618;40.084;32.908;2023-03-01T03:15:35;11.00;;;3.10;;
72584;SDS011;60618;40.084;32.908;2023-03-01T03:18:03;11.70;;;3.83;;
72584;SDS011;60618;40.084;32.908;2023-03-01T03:20:32;10.73;;;3.15;;
72584;SDS011;60618;40.084;32.908;2023-03-01T03:22:59;12.68;;;4.95;;
72584;SDS011;60618;40.084;32.908;2023-03-01T03:25:27;16.20;;;4.35;;
72584;SDS011;60618;40.084;32.908;2023-03-01T03:27:55;14.03;;;3.20;;
72584;SDS011;60618;40.084;32.908;2023-03-01T03:30:30;13.27;;;3.53;;
72584;SDS011;60618;40.084;32.908;2023-03-01T03:32:58;13.65;;;4.00;;
72584;SDS011;60618;40.084;32.908;2023-03-01T03:35:30;15.63;;;4.07;;
72584;SDS011;60618;40.084;32.908;2023-03-01T03:38:06;13.50;;;3.63;;
72584;SDS011;60618;40.084;32.908;2023-03-01T03:40:36;10.80;;;3.43;;
72584;SDS011;60618;40.084;32.908;2023-03-01T03:43:12;13.70;;;3.90;;
72584;SDS011;60618;40.084;32.908;2023-03-01T03:45:41;14.95;;;4.43;;
72584;SDS011;60618;40.084;32.908;2023-03-01T03:48:10;12.43;;;4.15;;
72584;SDS011;60618;40.084;32.908;2023-03-01T03:50:37;14.98;;;4.60;;
72584;SDS011;60618;40.084;32.908;2023-03-01T03:53:07;15.37;;;4.10;;
72584;SDS011;60618;40.084;32.908;2023-03-01T03:55:38;12.65;;;4.22;;
72584;SDS011;60618;40.084;32.908;2023-03-01T03:58:07;12.55;;;4.28;;
72584;SDS011;60618;40.084;32.908;2023-03-01T04:00:39;14.40;;;4.25;;
72584;SDS011;60618;40.084;32.908;2023-03-01T04:03:08;15.82;;;4.00;;
72584;SDS011;60618;40.084;32.908;2023-03-01T04:05:36;12.20;;;4.20;;
72584;SDS011;60618;40.084;32.908;2023-03-01T04:08:04;11.68;;;4.15;;
72584;SDS011;60618;40.084;32.908;2023-03-01T04:10:34;15.20;;;4.15;;
72584;SDS011;60618;40.084;32.908;2023-03-01T04:13:03;13.93;;;4.18;;
72584;SDS011;60618;40.084;32.908;2023-03-01T04:15:31;13.95;;;4.10;;
72584;SDS011;60618;40.084;32.908;2023-03-01T04:17:59;12.83;;;3.53;;
72584;SDS011;60618;40.084;32.908;2023-03-01T04:20:28;12.93;;;3.60;;
72584;SDS011;60618;40.084;32.908;2023-03-01T04:22:57;14.82;;;3.40;;
72584;SDS011;60618;40.084;32.908;2023-03-01T04:25:26;11.65;;;3.63;;
72584;SDS011;60618;40.084;32.908;2023-03-01T04:27:53;12.90;;;3.53;;
72584;SDS011;60618;40.084;32.908;2023-03-01T04:30:20;12.67;;;3.93;;
72584;SDS011;60618;40.084;32.908;2023-03-01T04:32:47;14.88;;;3.75;;
72584;SDS011;60618;40.084;32.908;2023-03-01T04:35:14;11.23;;;3.30;;
72584;SDS011;60618;40.084;32.908;2023-03-01T04:37:40;15.75;;;3.75;;
72584;SDS011;60618;40.084;32.908;2023-03-01T04:40:07;12.13;;;3.63;;
72584;SDS011;60618;40.084;32.908;2023-03-01T04:42:35;11.23;;;3.60;;
72584;SDS011;60618;40.084;32.908;2023-03-01T04:45:02;11.63;;;3.40;;
72584;SDS011;60618;40.084;32.908;2023-03-01T04:47:29;11.90;;;3.42;;
72584;SDS011;60618;40.084;32.908;2023-03-01T04:49:55;12.88;;;3.72;;
72584;SDS011;60618;40.084;32.908;2023-03-01T04:52:22;11.15;;;3.55;;
72584;SDS011;60618;40.084;32.908;2023-03-01T04:54:49;14.73;;;3.30;;
72584;SDS011;60618;40.084;32.908;2023-03-01T04:57:16;12.32;;;3.20;;
72584;SDS011;60618;40.084;32.908;2023-03-01T04:59:43;12.85;;;3.10;;
72584;SDS011;60618;40.084;32.908;2023-03-01T05:02:10;11.07;;;2.95;;
72584;SDS011;60618;40.084;32.908;2023-03-01T05:04:36;11.77;;;3.55;;
72584;SDS011;60618;40.084;32.908;2023-03-01T05:07:03;14.00;;;2.80;;
72584;SDS011;60618;40.084;32.908;2023-03-01T05:09:30;7.90;;;2.50;;
72584;SDS011;60618;40.084;32.908;2023-03-01T05:11:57;13.25;;;2.67;;
72584;SDS011;60618;40.084;32.908;2023-03-01T05:14:24;10.82;;;3.00;;
72584;SDS011;60618;40.084;32.908;2023-03-01T05:16:51;13.20;;;3.58;;
72584;SDS011;60618;40.084;32.908;2023-03-01T05:19:18;14.87;;;3.40;;
72584;SDS011;60618;40.084;32.908;2023-03-01T05:21:44;15.48;;;3.05;;
72584;SDS011;60618;40.084;32.908;2023-03-01T05:24:11;14.18;;;2.90;;
72584;SDS011;60618;40.084;32.908;2023-03-01T05:26:38;13.05;;;3.08;;
72584;SDS011;60618;40.084;32.908;2023-03-01T05:29:06;11.70;;;3.38;;
72584;SDS011;60618;40.084;32.908;2023-03-01T05:31:32;15.97;;;3.47;;
72584;SDS011;60618;40.084;32.908;2023-03-01T05:33:59;11.07;;;2.95;;
72584;SDS011;60618;40.084;32.908;2023-03-01T05:36:26;15.70;;;3.17;;
72584;SDS011;60618;40.084;32.908;2023-03-01T05:38:53;12.68;;;2.90;;
72584;SDS011;60618;40.084;32.908;2023-03-01T05:41:20;14.15;;;3.17;;
72584;SDS011;60618;40.084;32.908;2023-03-01T05:43:47;11.33;;;3.60;;
72584;SDS011;60618;40.084;32.908;2023-03-01T05:46:14;14.65;;;3.42;;
72584;SDS011;60618;40.084;32.908;2023-03-01T05:48:41;14.07;;;3.17;;
72584;SDS011;60618;40.084;32.908;2023-03-01T05:51:07;12.45;;;3.58;;
72584;SDS011;60618;40.084;32.908;2023-03-01T05:53:35;13.88;;;3.53;;
72584;SDS011;60618;40.084;32.908;2023-03-01T05:56:04;10.50;;;3.50;;
72584;SDS011;60618;40.084;32.908;2023-03-01T05:58:31;11.82;;;3.67;;
72584;SDS011;60618;40.084;32.908;2023-03-01T06:00:58;13.20;;;3.90;;
72584;SDS011;60618;40.084;32.908;2023-03-01T06:03:25;10.18;;;3.13;;
72584;SDS011;60618;40.084;32.908;2023-03-01T06:05:55;14.52;;;3.40;;
72584;SDS011;60618;40.084;32.908;2023-03-01T06:08:23;13.10;;;3.37;;
72584;SDS011;60618;40.084;32.908;2023-03-01T06:10:50;10.50;;;3.60;;
72584;SDS011;60618;40.084;32.908;2023-03-01T06:13:17;10.90;;;3.35;;
72584;SDS011;60618;40.084;32.908;2023-03-01T06:15:44;18.67;;;4.00;;
72584;SDS011;60618;40.084;32.908;2023-03-01T06:18:11;11.75;;;3.63;;
72584;SDS011;60618;40.084;32.908;2023-03-01T06:20:37;11.77;;;3.83;;
72584;SDS011;60618;40.084;32.908;2023-03-01T06:23:04;13.10;;;3.17;;
72584;SDS011;60618;40.084;32.908;2023-03-01T06:25:31;15.68;;;3.60;;
72584;SDS011;60618;40.084;32.908;2023-03-01T06:27:58;11.55;;;3.47;;
72584;SDS011;60618;40.084;32.908;2023-03-01T06:30:25;12.32;;;4.00;;
72584;SDS011;60618;40.084;32.908;2023-03-01T06:32:52;15.80;;;4.13;;
72584;SDS011;60618;40.084;32.908;2023-03-01T06:35:19;12.52;;;3.97;;
72584;SDS011;60618;40.084;32.908;2023-03-01T06:37:47;10.60;;;3.50;;
72584;SDS011;60618;40.084;32.908;2023-03-01T06:40:14;10.32;;;3.90;;
72584;SDS011;60618;40.084;32.908;2023-03-01T06:42:42;13.82;;;3.78;;
72584;SDS011;60618;40.084;32.908;2023-03-01T06:45:13;11.13;;;3.73;;
72584;SDS011;60618;40.084;32.908;2023-03-01T06:47:40;13.73;;;3.20;;
72584;SDS011;60618;40.084;32.908;2023-03-01T06:50:07;11.68;;;3.10;;
72584;SDS011;60618;40.084;32.908;2023-03-01T06:52:35;10.32;;;2.83;;
72584;SDS011;60618;40.084;32.908;2023-03-01T06:55:02;12.48;;;3.40;;
72584;SDS011;60618;40.084;32.908;2023-03-01T06:57:29;10.20;;;3.13;;
72584;SDS011;60618;40.084;32.908;2023-03-01T06:59:56;11.90;;;3.10;;
72584;SDS011;60618;40.084;32.908;2023-03-01T07:02:23;10.02;;;3.20;;
72584;SDS011;60618;40.084;32.908;2023-03-01T07:04:50;11.73;;;2.97;;
72584;SDS011;60618;40.084;32.908;2023-03-01T07:07:17;16.38;;;3.20;;
72584;SDS011;60618;40.084;32.908;2023-03-01T07:09:45;13.23;;;3.00;;
72584;SDS011;60618;40.084;32.908;2023-03-01T07:12:12;11.10;;;2.95;;
72584;SDS011;60618;40.084;32.908;2023-03-01T07:14:39;12.68;;;3.60;;
72584;SDS011;60618;40.084;32.908;2023-03-01T07:17:06;9.52;;;3.10;;
72584;SDS011;60618;40.084;32.908;2023-03-01T07:19:33;11.88;;;3.15;;
72584;SDS011;60618;40.084;32.908;2023-03-01T07:22:00;13.17;;;3.37;;
72584;SDS011;60618;40.084;32.908;2023-03-01T07:24:27;9.25;;;3.17;;
72584;SDS011;60618;40.084;32.908;2023-03-01T07:26:54;14.10;;;3.67;;
72584;SDS011;60618;40.084;32.908;2023-03-01T07:29:21;10.75;;;3.17;;
72584;SDS011;60618;40.084;32.908;2023-03-01T07:31:47;13.65;;;3.17;;
72584;SDS011;60618;40.084;32.908;2023-03-01T07:34:14;13.30;;;3.53;;
72584;SDS011;60618;40.084;32.908;2023-03-01T07:36:41;15.13;;;3.10;;
72584;SDS011;60618;40.084;32.908;2023-03-01T07:39:09;13.55;;;3.22;;
72584;SDS011;60618;40.084;32.908;2023-03-01T07:41:37;11.23;;;4.03;;
72584;SDS011;60618;40.084;32.908;2023-03-01T07:44:04;14.55;;;4.07;;
72584;SDS011;60618;40.084;32.908;2023-03-01T07:46:31;12.53;;;3.37;;
72584;SDS011;60618;40.084;32.908;2023-03-01T07:48:58;12.00;;;3.60;;
72584;SDS011;60618;40.084;32.908;2023-03-01T07:51:25;11.07;;;3.63;;
72584;SDS011;60618;40.084;32.908;2023-03-01T07:53:52;16.08;;;3.50;;
72584;SDS011;60618;40.084;32.908;2023-03-01T07:56:19;13.02;;;3.35;;
72584;SDS011;60618;40.084;32.908;2023-03-01T07:58:46;13.07;;;3.10;;
72584;SDS011;60618;40.084;32.908;2023-03-01T08:01:17;15.02;;;3.90;;
72584;SDS011;60618;40.084;32.908;2023-03-01T08:03:45;11.45;;;3.13;;
72584;SDS011;60618;40.084;32.908;2023-03-01T08:06:14;10.43;;;2.88;;
72584;SDS011;60618;40.084;32.908;2023-03-01T08:08:42;9.98;;;3.40;;
72584;SDS011;60618;40.084;32.908;2023-03-01T08:11:14;13.07;;;3.50;;
72584;SDS011;60618;40.084;32.908;2023-03-01T08:13:41;13.60;;;3.90;;
72584;SDS011;60618;40.084;32.908;2023-03-01T08:16:10;13.02;;;3.58;;
72584;SDS011;60618;40.084;32.908;2023-03-01T08:18:39;11.13;;;3.20;;
72584;SDS011;60618;40.084;32.908;2023-03-01T08:21:06;14.50;;;3.78;;
72584;SDS011;60618;40.084;32.908;2023-03-01T08:23:39;11.27;;;3.20;;
72584;SDS011;60618;40.084;32.908;2023-03-01T08:28:38;12.05;;;3.65;;
72584;SDS011;60618;40.084;32.908;2023-03-01T08:31:19;11.70;;;2.90;;
72584;SDS011;60618;40.084;32.908;2023-03-01T08:33:48;9.98;;;2.95;;
72584;SDS011;60618;40.084;32.908;2023-03-01T08:36:17;12.40;;;3.30;;
72584;SDS011;60618;40.084;32.908;2023-03-01T08:38:47;16.40;;;3.55;;
72584;SDS011;60618;40.084;32.908;2023-03-01T08:41:14;13.93;;;3.97;;
72584;SDS011;60618;40.084;32.908;2023-03-01T08:43:41;14.95;;;3.92;;
72584;SDS011;60618;40.084;32.908;2023-03-01T08:46:08;17.15;;;4.18;;
72584;SDS011;60618;40.084;32.908;2023-03-01T08:48:35;12.80;;;4.00;;
72584;SDS011;60618;40.084;32.908;2023-03-01T08:51:11;14.02;;;3.30;;
72584;SDS011;60618;40.084;32.908;2023-03-01T08:53:40;13.25;;;3.72;;
72584;SDS011;60618;40.084;32.908;2023-03-01T08:56:07;14.02;;;3.97;;
72584;SDS011;60618;40.084;32.908;2023-03-01T08:58:35;12.40;;;3.70;;
72584;SDS011;60618;40.084;32.908;2023-03-01T09:01:09;12.37;;;4.10;;
72584;SDS011;60618;40.084;32.908;2023-03-01T09:03:37;14.73;;;4.47;;
72584;SDS011;60618;40.084;32.908;2023-03-01T09:06:05;13.20;;;4.13;;
72584;SDS011;60618;40.084;32.908;2023-03-01T09:08:37;18.10;;;4.32;;
72584;SDS011;60618;40.084;32.908;2023-03-01T09:11:06;13.25;;;3.72;;
72584;SDS011;60618;40.084;32.908;2023-03-01T09:13:34;13.50;;;3.87;;
72584;SDS011;60618;40.084;32.908;2023-03-01T09:16:02;18.38;;;4.20;;
72584;SDS011;60618;40.084;32.908;2023-03-01T09:18:30;13.70;;;4.00;;
72584;SDS011;60618;40.084;32.908;2023-03-01T09:21:09;16.65;;;4.60;;
72584;SDS011;60618;40.084;32.908;2023-03-01T09:23:38;14.73;;;4.25;;
72584;SDS011;60618;40.084;32.908;2023-03-01T09:26:11;13.17;;;3.80;;
72584;SDS011;60618;40.084;32.908;2023-03-01T09:28:40;20.17;;;4.15;;
72584;SDS011;60618;40.084;32.908;2023-03-01T09:31:06;15.55;;;4.38;;
72584;SDS011;60618;40.084;32.908;2023-03-01T09:33:34;14.88;;;3.65;;
72584;SDS011;60618;40.084;32.908;2023-03-01T09:36:04;14.65;;;4.13;;
72584;SDS011;60618;40.084;32.908;2023-03-01T09:38:33;15.13;;;4.97;;
72584;SDS011;60618;40.084;32.908;2023-03-01T09:41:00;12.20;;;3.80;;
72584;SDS011;60618;40.084;32.908;2023-03-01T09:46:13;11.30;;;4.03;;
72584;SDS011;60618;40.084;32.908;2023-03-01T09:51:31;14.37;;;3.63;;
72584;SDS011;60618;40.084;32.908;2023-03-01T09:54:01;15.38;;;4.50;;
72584;SDS011;60618;40.084;32.908;2023-03-01T09:56:32;14.00;;;4.03;;
72584;SDS011;60618;40.084;32.908;2023-03-01T10:04:47;13.20;;;3.90;;
72584;SDS011;60618;40.084;32.908;2023-03-01T10:07:31;15.05;;;3.97;;
72584;SDS011;60618;40.084;32.908;2023-03-01T10:10:14;14.43;;;3.63;;
72584;SDS011;60618;40.084;32.908;2023-03-01T10:12:50;20.75;;;3.90;;
72584;SDS011;60618;40.084;32.908;2023-03-01T10:15:43;16.52;;;3.60;;
72584;SDS011;60618;40.084;32.908;2023-03-01T10:18:12;17.10;;;4.03;;
72584;SDS011;60618;40.084;32.908;2023-03-01T10:20:47;15.65;;;3.22;;
72584;SDS011;60618;40.084;32.908;2023-03-01T10:23:28;11.52;;;2.90;;
72584;SDS011;60618;40.084;32.908;2023-03-01T10:28:48;12.48;;;3.22;;
72584;SDS011;60618;40.084;32.908;2023-03-01T10:31:25;15.77;;;3.70;;
72584;SDS011;60618;40.084;32.908;2023-03-01T10:34:11;12.93;;;3.50;;
72584;SDS011;60618;40.084;32.908;2023-03-01T10:36:39;21.98;;;4.68;;
72584;SDS011;60618;40.084;32.908;2023-03-01T10:39:11;16.90;;;3.72;;
72584;SDS011;60618;40.084;32.908;2023-03-01T10:42:00;13.70;;;3.75;;
72584;SDS011;60618;40.084;32.908;2023-03-01T10:44:36;16.27;;;3.50;;
72584;SDS011;60618;40.084;32.908;2023-03-01T10:47:13;16.05;;;3.40;;
72584;SDS011;60618;40.084;32.908;2023-03-01T10:49:53;15.68;;;3.65;;
72584;SDS011;60618;40.084;32.908;2023-03-01T10:52:27;16.52;;;3.70;;
72584;SDS011;60618;40.084;32.908;2023-03-01T10:54:58;13.23;;;3.70;;
72584;SDS011;60618;40.084;32.908;2023-03-01T10:57:35;15.50;;;4.13;;
72584;SDS011;60618;40.084;32.908;2023-03-01T11:00:14;15.95;;;4.10;;
72584;SDS011;60618;40.084;32.908;2023-03-01T11:05:25;17.65;;;3.85;;
72584;SDS011;60618;40.084;32.908;2023-03-01T11:07:53;15.98;;;3.83;;
72584;SDS011;60618;40.084;32.908;2023-03-01T11:10:32;13.87;;;4.00;;
72584;SDS011;60618;40.084;32.908;2023-03-01T11:13:09;18.27;;;4.10;;
72584;SDS011;60618;40.084;32.908;2023-03-01T11:15:39;17.92;;;3.55;;
72584;SDS011;60618;40.084;32.908;2023-03-01T11:18:17;14.85;;;3.85;;
72584;SDS011;60618;40.084;32.908;2023-03-01T11:20:46;18.30;;;4.30;;
72584;SDS011;60618;40.084;32.908;2023-03-01T11:23:15;20.87;;;4.40;;
72584;SDS011;60618;40.084;32.908;2023-03-01T11:25:44;20.58;;;4.05;;
72584;SDS011;60618;40.084;32.908;2023-03-01T11:28:16;16.83;;;3.38;;
72584;SDS011;60618;40.084;32.908;2023-03-01T11:33:51;14.90;;;4.35;;
72584;SDS011;60618;40.084;32.908;2023-03-01T11:36:28;15.70;;;4.20;;
72584;SDS011;60618;40.084;32.908;2023-03-01T11:38:57;11.82;;;3.50;;
72584;SDS011;60618;40.084;32.908;2023-03-01T11:41:31;18.00;;;3.92;;
72584;SDS011;60618;40.084;32.908;2023-03-01T11:44:01;16.75;;;3.97;;
72584;SDS011;60618;40.084;32.908;2023-03-01T11:49:05;14.13;;;4.10;;
72584;SDS011;60618;40.084;32.908;2023-03-01T12:17:22;20.33;;;5.10;;
72584;SDS011;60618;40.084;32.908;2023-03-01T12:26:01;18.73;;;3.90;;
72584;SDS011;60618;40.084;32.908;2023-03-01T12:28:46;17.17;;;3.90;;
72584;SDS011;60618;40.084;32.908;2023-03-01T12:39:43;17.00;;;4.32;;
72584;SDS011;60618;40.084;32.908;2023-03-01T12:42:36;16.25;;;3.70;;
72584;SDS011;60618;40.084;32.908;2023-03-01T12:45:32;16.93;;;3.60;;
72584;SDS011;60618;40.084;32.908;2023-03-01T12:50:45;14.57;;;3.75;;
72584;SDS011;60618;40.084;32.908;2023-03-01T12:53:39;18.65;;;4.30;;
72584;SDS011;60618;40.084;32.908;2023-03-01T12:56:08;17.40;;;4.93;;
72584;SDS011;60618;40.084;32.908;2023-03-01T12:58:43;25.07;;;5.33;;
72584;SDS011;60618;40.084;32.908;2023-03-01T13:07:02;21.92;;;6.32;;
72584;SDS011;60618;40.084;32.908;2023-03-01T13:10:00;22.05;;;5.95;;
72584;SDS011;60618;40.084;32.908;2023-03-01T13:17:59;23.83;;;7.28;;
72584;SDS011;60618;40.084;32.908;2023-03-01T13:26:02;21.23;;;6.07;;
72584;SDS011;60618;40.084;32.908;2023-03-01T13:38:57;25.47;;;7.57;;
72584;SDS011;60618;40.084;32.908;2023-03-01T13:46:52;19.35;;;6.63;;
72584;SDS011;60618;40.084;32.908;2023-03-01T13:49:23;20.10;;;6.43;;
72584;SDS011;60618;40.084;32.908;2023-03-01T13:52:06;17.63;;;5.60;;
72584;SDS011;60618;40.084;32.908;2023-03-01T13:55:02;19.92;;;5.78;;
72584;SDS011;60618;40.084;32.908;2023-03-01T13:57:36;21.58;;;6.07;;
72584;SDS011;60618;40.084;32.908;2023-03-01T14:00:04;27.65;;;7.78;;
72584;SDS011;60618;40.084;32.908;2023-03-01T14:02:32;18.58;;;6.10;;
72584;SDS011;60618;40.084;32.908;2023-03-01T14:04:59;26.07;;;6.57;;
72584;SDS011;60618;40.084;32.908;2023-03-01T14:07:27;26.95;;;5.75;;
72584;SDS011;60618;40.084;32.908;2023-03-01T14:09:59;22.15;;;5.60;;
72584;SDS011;60618;40.084;32.908;2023-03-01T14:16:28;19.42;;;5.50;;
72584;SDS011;60618;40.084;32.908;2023-03-01T14:18:58;21.33;;;5.20;;
72584;SDS011;60618;40.084;32.908;2023-03-01T14:21:21;18.95;;;5.65;;
72584;SDS011;60618;40.084;32.908;2023-03-01T14:23:49;17.92;;;5.63;;
72584;SDS011;60618;40.084;32.908;2023-03-01T14:26:20;17.25;;;5.47;;
72584;SDS011;60618;40.084;32.908;2023-03-01T14:28:49;20.90;;;5.60;;
72584;SDS011;60618;40.084;32.908;2023-03-01T14:33:58;23.30;;;4.95;;
72584;SDS011;60618;40.084;32.908;2023-03-01T14:36:29;20.30;;;5.13;;
72584;SDS011;60618;40.084;32.908;2023-03-01T14:38:58;21.67;;;5.53;;
72584;SDS011;60618;40.084;32.908;2023-03-01T14:41:25;16.52;;;5.10;;
72584;SDS011;60618;40.084;32.908;2023-03-01T14:43:58;18.37;;;4.13;;
72584;SDS011;60618;40.084;32.908;2023-03-01T14:46:36;19.65;;;3.90;;
72584;SDS011;60618;40.084;32.908;2023-03-01T14:49:17;16.63;;;3.78;;
72584;SDS011;60618;40.084;32.908;2023-03-01T14:52:01;14.70;;;3.50;;
72584;SDS011;60618;40.084;32.908;2023-03-01T14:57:12;19.03;;;4.47;;
72584;SDS011;60618;40.084;32.908;2023-03-01T14:59:46;12.52;;;3.70;;
72584;SDS011;60618;40.084;32.908;2023-03-01T15:02:15;12.40;;;3.30;;
72584;SDS011;60618;40.084;32.908;2023-03-01T15:04:51;17.95;;;4.70;;
72584;SDS011;60618;40.084;32.908;2023-03-01T15:07:21;14.52;;;3.70;;
72584;SDS011;60618;40.084;32.908;2023-03-01T15:09:52;12.70;;;3.20;;
72584;SDS011;60618;40.084;32.908;2023-03-01T15:14:55;13.18;;;3.60;;
72584;SDS011;60618;40.084;32.908;2023-03-01T15:17:33;11.73;;;3.13;;
72584;SDS011;60618;40.084;32.908;2023-03-01T15:20:04;13.60;;;3.45;;
72584;SDS011;60618;40.084;32.908;2023-03-01T15:22:34;15.37;;;2.97;;
72584;SDS011;60618;40.084;32.908;2023-03-01T15:25:01;20.08;;;4.30;;
72584;SDS011;60618;40.084;32.908;2023-03-01T15:27:28;21.38;;;4.10;;
72584;SDS011;60618;40.084;32.908;2023-03-01T15:29:57;16.92;;;4.30;;
72584;SDS011;60618;40.084;32.908;2023-03-01T15:32:29;17.90;;;3.67;;
72584;SDS011;60618;40.084;32.908;2023-03-01T15:34:59;14.47;;;3.63;;
72584;SDS011;60618;40.084;32.908;2023-03-01T15:37:40;14.73;;;3.55;;
72584;SDS011;60618;40.084;32.908;2023-03-01T15:40:25;15.43;;;3.85;;
72584;SDS011;60618;40.084;32.908;2023-03-01T15:42:54;15.88;;;3.85;;
72584;SDS011;60618;40.084;32.908;2023-03-01T15:45:23;14.40;;;4.00;;
72584;SDS011;60618;40.084;32.908;2023-03-01T15:47:52;16.70;;;4.10;;
72584;SDS011;60618;40.084;32.908;2023-03-01T15:50:25;18.35;;;3.83;;
72584;SDS011;60618;40.084;32.908;2023-03-01T15:52:57;14.63;;;3.50;;
72584;SDS011;60618;40.084;32.908;2023-03-01T16:00:46;12.57;;;3.73;;
72584;SDS011;60618;40.084;32.908;2023-03-01T16:03:26;13.73;;;4.10;;
72584;SDS011;60618;40.084;32.908;2023-03-01T16:05:53;13.50;;;3.75;;
72584;SDS011;60618;40.084;32.908;2023-03-01T16:08:20;17.25;;;3.90;;
72584;SDS011;60618;40.084;32.908;2023-03-01T16:10:47;16.70;;;4.03;;
72584;SDS011;60618;40.084;32.908;2023-03-01T16:13:16;17.33;;;3.80;;
72584;SDS011;60618;40.084;32.908;2023-03-01T16:15:43;14.43;;;4.50;;
72584;SDS011;60618;40.084;32.908;2023-03-01T16:18:10;15.50;;;4.40;;
72584;SDS011;60618;40.084;32.908;2023-03-01T16:20:37;18.08;;;4.05;;
72584;SDS011;60618;40.084;32.908;2023-03-01T16:23:06;14.75;;;4.20;;
72584;SDS011;60618;40.084;32.908;2023-03-01T16:25:36;15.97;;;4.00;;
72584;SDS011;60618;40.084;32.908;2023-03-01T16:28:03;16.33;;;4.20;;
72584;SDS011;60618;40.084;32.908;2023-03-01T16:30:30;14.35;;;4.05;;
72584;SDS011;60618;40.084;32.908;2023-03-01T16:32:57;18.23;;;4.07;;
72584;SDS011;60618;40.084;32.908;2023-03-01T16:35:25;12.60;;;4.07;;
72584;SDS011;60618;40.084;32.908;2023-03-01T16:37:52;15.37;;;4.50;;
72584;SDS011;60618;40.084;32.908;2023-03-01T16:40:20;16.48;;;3.97;;
72584;SDS011;60618;40.084;32.908;2023-03-01T16:42:49;13.18;;;3.95;;
72584;SDS011;60618;40.084;32.908;2023-03-01T16:45:17;20.45;;;4.25;;